Terminal Aerodrome Forecast
Issued by NWS Sterling, VA

Current Version | Previous Version | Text Only | Print | Product List | Glossary Off
Versions: 1 2 3 4 5 6 7 8 9 10 11 12 13 14 15 16 17 18

238
FTUS41 KLWX 300520
TAFMRB
TAF
KMRB 300520Z 3006/0106 VRB03KT 2SM -DZ BR OVC008
     FM301200 09004KT 2SM BR OVC008
     FM301400 10005KT 3SM BR OVC008
     FM301700 12005KT P6SM OVC015
     FM301900 13006KT P6SM OVC025
     FM302300 14006KT 3SM RA BR OVC010
     FM010300 14007KT 3SM RA BR OVC003=

USA.gov is the U.S. government's official web portal to all federal, state and local government web resources and services.